This is the latest recevied weather packets stored in our database for station/object WP4NYS-13. If no packets are shown the sender has not sent any weather packets the latest 10 day(s).
| Time | Temp. | Humidity | Pressure | Rain* | Wind** | Luminosity | Snow |
|---|---|---|---|---|---|---|---|
| 1777480559 | 31.67° C | 52% | 1016.5 hPa | 0 mm | - | - | - |
| 1777480256 | 31.67° C | 52% | 1016.7 hPa | 0 mm | - | - | - |
| 1777479952 | 31.11° C | 52% | 1016.6 hPa | 0 mm | - | - | - |
| 1777479649 | 30.56° C | 54% | 1016.9 hPa | 0 mm | - | - | - |
| 1777479348 | 30° C | 57% | 1017.2 hPa | 0 mm | - | - | - |
| 1777479043 | 30° C | 56% | 1017 hPa | 0 mm | - | - | - |
| 1777478740 | 30° C | 57% | 1017.1 hPa | 0 mm | - | - | - |
| 1777478437 | 30° C | 57% | 1017.2 hPa | 0 mm | - | - | - |
| 1777478133 | 30° C | 57% | 1017 hPa | 0 mm | - | - | - |
| 1777477830 | 29.44° C | 59% | 1017.2 hPa | 0 mm | - | - | - |
| 1777477525 | 28.89° C | 59% | 1017.3 hPa | 0 mm | - | - | - |
| 1777477222 | 29.44° C | 58% | 1017.4 hPa | 0 mm | - | - | - |
| 1777476918 | 29.44° C | 59% | 1017.4 hPa | 0 mm | - | - | - |
| 1777476617 | 28.89° C | 61% | 1017.7 hPa | 0 mm | - | - | - |
| 1777476313 | 29.44° C | 58% | 1017.7 hPa | 0 mm | - | - | - |
| 1777476009 | 28.89° C | 60% | 1017.8 hPa | 0 mm | - | - | - |
| 1777475704 | 28.89° C | 60% | 1017.8 hPa | 0 mm | - | - | - |
| 1777475401 | 28.33° C | 60% | 1018.1 hPa | 0 mm | - | - | - |
| 1777475096 | 27.78° C | 64% | 1018 hPa | 0 mm | - | - | - |
| 1777474793 | 27.22° C | 64% | 1017.8 hPa | 0 mm | - | - | - |
| 1777474489 | 26.67° C | 66% | 1017.9 hPa | 0 mm | - | - | - |
| 1777474185 | 26.11° C | 67% | 1018 hPa | 0 mm | - | - | - |
| 1777473884 | 26.11° C | 68% | 1018.1 hPa | 0 mm | - | - | - |
| 1777473581 | 26.67° C | 67% | 1018 hPa | 0 mm | - | - | - |
| 1777473277 | 26.67° C | 66% | 1017.8 hPa | 0 mm | - | - | - |
* Rain latest hour (hover to see other rain measurements)
** Current wind speed in m/s (hover to see current wind gust speed)